This is the latest recevied weather packets stored in our database for station/object K3MV-13. If no packets are shown the sender has not sent any weather packets the latest 10 day(s).
| Time | Temp. | Humidity | Pressure | Rain* | Wind** | Luminosity | Snow |
|---|---|---|---|---|---|---|---|
| 1777775883 | 2.78° C | 79% | 1015.3 hPa | 0 mm | - | 0 W/m² | - |
| 1777775580 | 2.78° C | 79% | 1015.3 hPa | 0 mm | - | 0 W/m² | - |
| 1777775277 | 2.78° C | 79% | 1015.5 hPa | 0 mm | - | 0 W/m² | - |
| 1777774977 | 2.78° C | 79% | 1015.4 hPa | 0 mm | - | 0 W/m² | - |
| 1777774674 | 2.78° C | 78% | 1015.4 hPa | 0 mm | - | 0 W/m² | - |
| 1777774370 | 2.78° C | 78% | 1015.5 hPa | 0 mm | - | 0 W/m² | - |
| 1777774068 | 2.78° C | 78% | 1015.3 hPa | 0 mm | - | 0 W/m² | - |
| 1777773461 | 2.78° C | 78% | 1015.4 hPa | 0 mm | - | 0 W/m² | - |
| 1777773158 | 2.78° C | 78% | 1015.2 hPa | 0 mm | - | 0 W/m² | - |
| 1777772857 | 2.78° C | 78% | 1015.2 hPa | 0 mm | - | 0 W/m² | - |
| 1777772249 | 2.78° C | 77% | 1015.2 hPa | 0 mm | - | 0 W/m² | - |
| 1777771947 | 2.78° C | 77% | 1015.2 hPa | 0 mm | - | 0 W/m² | - |
| 1777768614 | 3.33° C | 76% | 1014.6 hPa | 0 mm | - | 0 W/m² | - |
| 1777768311 | 3.33° C | 75% | 1014.4 hPa | 0 mm | - | 0 W/m² | - |
| 1777767704 | 3.33° C | 75% | 1014.4 hPa | 0 mm | - | 1 W/m² | - |
| 1777767400 | 3.89° C | 74% | 1014.4 hPa | 0 mm | - | 1 W/m² | - |
| 1777767097 | 3.89° C | 75% | 1014.3 hPa | 0 mm | - | 2 W/m² | - |
| 1777766795 | 3.89° C | 74% | 1014.3 hPa | 0 mm | - | 3 W/m² | - |
| 1777766492 | 3.89° C | 73% | 1014.4 hPa | 0 mm | - | 5 W/m² | - |
| 1777764975 | 3.89° C | 70% | 1014.1 hPa | 0 mm | - | 19 W/m² | - |
| 1777764673 | 4.44° C | 69% | 1014.1 hPa | 0 mm | - | 22 W/m² | - |
| 1777764368 | 4.44° C | 69% | 1014.1 hPa | 0 mm | - | 27 W/m² | - |
| 1777763763 | 5° C | 67% | 1014.2 hPa | 0 mm | - | 41 W/m² | - |
| 1777761643 | 5.56° C | 64% | 1013.8 hPa | 0 mm | - | 85 W/m² | - |
| 1777761340 | 5.56° C | 67% | 1013.7 hPa | 0 mm | - | 82 W/m² | - |
* Rain latest hour (hover to see other rain measurements)
** Current wind speed in m/s (hover to see current wind gust speed)